Aérodrome :
LOGIN :

S'inscrire | Disclaimer

   EN    FR    IT 

 










Légende :    VFR   VFR Marginal   IFR   IFR Intensif   IFR Très Intensif
Visi : 
Plafond : 
>= 8 km
>= 3000ft
5 à 8 km
1000 à 3000 ft
1500m à 5 km
500 à 1000 ft
800 à 1500m
200 à 500 ft
< 800m
< 200 ft
Symboles :   Orages  Brouillard  Fortes neiges  Fortes précipitations  Vent > 20 kt
SIGMETs :   Divers  Orages  Givrage  Turbulence  Onde Orograph.  Cendres Volcan.







- Altitude de l'aérodrome : 200 ft


EBBL - Klein Brogel AB

DERNIER METAR :
  • 250025Z AUTO VRB01KT 0550 FG NCD 09/09 Q1022 RED

METARs EXPIRÉS :
  • 242355Z AUTO VRB01KT 0200 FG NCD 10/09 Q1022 RED
  • 242350Z AUTO VRB01KT 0550 BR NCD 10/10 Q1022 RED
  • 242336Z AUTO VRB01KT 1200 BR NCD 10/10 Q1022 AMB
  • 242255Z AUTO 09003KT 1800 BR NCD 11/10 Q1022 YLO
  • 242225Z AUTO 08003KT 1900 BR NCD 10/09 Q1022 YLO
  • 242155Z AUTO VRB02KT 2000 BR NCD 10/10 Q1022 YLO

Prévision TAF périmée.
Pas de NOTAMs connus pour ce terrain.



MET'MAP, la Météo Aéronautique d'un coup d'oeil ! - Copyright ORBIFLY Décembre 2007 - Disclaimer

ORBIFLY MET'MAP TEAM :

Programmation & Développement : Alexandra Zaïnal
Conception & Développement : Baudouin d'Aumeries
Co-Programmation & Développement : Marc-Olivier Méhu
Soutien technique & logistique : Manuel Goepfert

Contact : metmap@orbifly.com




SOURCES & CREDITS :

   NOAA